Time;durP1;ratioP1;P1;durP2;ratioP2;P2;SDS_P1;SDS_P2;PMS_P1;PMS_P2;Temp;Humidity;BMP_temperature;BMP_pressure;BME280_temperature;BME280_humidity;BME280_pressure;Samples;Min_cycle;Max_cycle;Signal;HPM_P1;HPM_P2
2022/07/11 00:01:33;;;;;;;1.90;1.37;;;14.90;64.40;;;13.92;65.04;98521.91;4999340;28;20465;-79
2022/07/11 00:04:01;;;;;;;1.60;1.40;;;14.90;64.80;;;13.98;65.00;98526.41;5007078;28;20467;-80
2022/07/11 00:06:28;;;;;;;2.90;1.33;;;15.00;65.20;;;14.04;64.99;98520.09;5011722;28;21066;-84
2022/07/11 00:08:56;;;;;;;2.77;1.03;;;15.00;65.40;;;13.94;65.60;98531.47;5006851;28;20558;-81
2022/07/11 00:11:23;;;;;;;6.10;1.30;;;14.90;65.80;;;14.00;65.57;98518.88;5019027;28;20472;-80
2022/07/11 00:13:50;;;;;;;1.47;1.37;;;15.00;66.30;;;13.93;66.05;98526.28;5000098;28;20462;-81
2022/07/11 00:16:18;;;;;;;1.57;1.47;;;14.90;66.60;;;13.80;67.23;98525.34;5004902;28;20480;-83
2022/07/11 00:18:45;;;;;;;1.97;1.20;;;14.80;67.50;;;13.94;67.20;98517.06;5002590;28;20467;-80
2022/07/11 00:21:14;;;;;;;2.50;1.37;;;14.90;68.40;;;13.92;67.29;98524.63;5005498;28;20996;-82
2022/07/11 00:23:41;;;;;;;2.13;1.43;;;14.90;68.40;;;13.92;67.35;98521.91;5003625;28;20570;-80
2022/07/11 00:26:09;;;;;;;2.27;1.60;;;15.00;69.00;;;13.70;67.42;98476.16;5010377;28;20462;-83
2022/07/11 00:28:36;;;;;;;1.73;1.30;;;15.00;69.30;;;13.99;67.42;98514.50;5003044;28;20460;-81
2022/07/11 00:31:04;;;;;;;1.67;1.37;;;15.00;69.40;;;13.81;68.06;98521.56;5016018;28;20473;-80
2022/07/11 00:33:31;;;;;;;1.90;1.47;;;14.90;69.80;;;13.88;67.30;98525.06;5003462;28;20462;-79
2022/07/11 00:35:59;;;;;;;3.23;1.73;;;14.90;69.90;;;14.08;66.65;98521.31;5000620;28;20494;-79
2022/07/11 00:38:27;;;;;;;1.60;1.50;;;15.00;69.70;;;13.92;67.50;98509.13;5014415;28;20452;-81
2022/07/11 00:40:54;;;;;;;3.70;1.77;;;14.90;70.30;;;13.60;68.49;98510.09;5005695;28;20566;-79
2022/07/11 00:43:31;;;;;;;2.70;1.30;;;14.80;70.60;;;13.75;68.39;98527.91;5017129;28;21014;-78
2022/07/11 00:45:58;;;;;;;2.50;1.37;;;14.80;71.00;;;13.71;68.40;98518.53;4992169;28;20516;-79
2022/07/11 00:48:26;;;;;;;2.80;1.30;;;14.70;71.30;;;13.64;69.17;98528.66;4999980;28;20509;-80
2022/07/11 00:50:56;;;;;;;4.70;1.53;;;14.70;71.80;;;13.69;69.01;98529.63;5019131;28;20460;-78
2022/07/11 00:53:23;;;;;;;4.03;1.40;;;14.70;72.40;;;13.64;69.77;98525.94;5002206;28;20463;-80
2022/07/11 00:55:54;;;;;;;1.90;1.33;;;14.70;73.10;;;13.74;69.31;98518.13;5003047;28;20519;-83
2022/07/11 00:58:23;;;;;;;2.93;1.30;;;14.70;73.10;;;13.83;69.31;98530.31;4997767;28;20474;-79
2022/07/11 01:00:51;;;;;;;2.10;1.60;;;14.80;73.30;;;13.99;69.05;98528.94;4999689;28;20453;-82
2022/07/11 01:03:18;;;;;;;2.77;1.63;;;14.80;73.60;;;13.84;69.06;98504.81;4997570;28;21088;-82
2022/07/11 01:05:46;;;;;;;3.07;1.50;;;15.00;73.80;;;13.77;70.24;98519.53;5002692;28;20459;-82
2022/07/11 01:08:14;;;;;;;1.90;1.40;;;14.80;74.10;;;13.72;70.22;98528.34;4997907;28;21260;-78
2022/07/11 01:10:41;;;;;;;1.83;1.50;;;14.70;74.70;;;13.91;69.81;98520.25;5001588;28;20470;-83
2022/07/11 01:13:09;;;;;;;2.10;1.27;;;14.80;75.10;;;13.88;69.91;98516.91;4991791;28;20467;-82
2022/07/11 01:15:38;;;;;;;1.47;1.30;;;14.80;74.90;;;13.96;69.66;98520.38;4996616;28;20460;-83
2022/07/11 01:18:05;;;;;;;2.90;1.60;;;14.90;75.10;;;14.09;69.04;98512.09;5003313;28;20636;-85
2022/07/11 01:20:33;;;;;;;2.30;1.47;;;15.00;75.20;;;13.95;69.76;98521.44;5002818;28;20475;-82
2022/07/11 01:23:04;;;;;;;2.50;1.53;;;15.00;75.00;;;13.71;70.66;98508.53;5005990;28;20472;-81
2022/07/11 01:25:32;;;;;;;1.93;1.70;;;14.80;75.60;;;13.51;71.56;98502.47;5018139;28;20461;-82
2022/07/11 01:27:59;;;;;;;2.03;1.80;;;14.70;76.10;;;13.74;70.85;98499.91;4999480;28;20465;-83
2022/07/11 01:30:28;;;;;;;2.60;1.67;;;14.70;76.20;;;13.62;71.06;98503.59;4998898;28;20840;-82
2022/07/11 01:32:56;;;;;;;2.10;1.43;;;14.70;76.40;;;13.62;71.33;98499.00;4995011;28;20486;-82
2022/07/11 01:35:24;;;;;;;3.87;1.67;;;14.60;76.50;;;13.73;70.99;98503.69;4995444;28;20990;-82
2022/07/11 01:37:52;;;;;;;2.67;1.40;;;14.70;76.60;;;13.85;70.67;98497.53;4996318;28;20461;-85
2022/07/11 01:40:21;;;;;;;1.97;1.80;;;14.80;76.70;;;13.98;70.61;98496.53;4999295;28;20461;-77
2022/07/11 01:42:48;;;;;;;2.80;1.70;;;14.90;76.60;;;13.92;69.99;98479.25;5003700;28;20586;-81
2022/07/11 01:45:15;;;;;;;2.67;1.93;;;15.00;76.40;;;14.06;70.14;98496.25;5007884;28;20482;-80
2022/07/11 01:47:43;;;;;;;3.20;1.60;;;15.00;76.50;;;13.91;70.57;98482.22;5011108;28;20516;-79
2022/07/11 01:50:10;;;;;;;2.40;1.50;;;15.00;76.30;;;13.95;70.68;98483.41;5017527;28;20562;-82
2022/07/11 01:52:39;;;;;;;2.67;1.63;;;15.00;76.50;;;13.57;70.85;98439.97;5010922;28;20468;-76
2022/07/11 01:55:08;;;;;;;1.53;1.43;;;14.90;76.70;;;14.03;70.10;98485.84;4999847;28;20451;-80
2022/07/11 01:57:38;;;;;;;4.30;1.73;;;14.90;76.70;;;14.21;70.01;98487.69;5008453;28;20489;-81
2022/07/11 02:00:09;;;;;;;2.60;1.67;;;15.00;76.70;;;14.03;70.48;98485.84;5016975;28;21026;-78
2022/07/11 02:02:36;;;;;;;2.93;1.93;;;15.00;76.90;;;14.12;70.15;98475.50;5022486;28;20453;-77
2022/07/11 02:05:05;;;;;;;3.00;1.67;;;15.10;76.80;;;14.20;69.88;98479.78;5023828;28;20462;-76
2022/07/11 02:10:14;;;;;;;1.50;1.40;;;15.10;76.60;;;14.17;70.06;98476.44;4989913;28;20471;-81
2022/07/11 02:12:42;;;;;;;3.00;1.60;;;15.10;76.70;;;14.13;69.80;98464.38;4996680;28;20470;-78
2022/07/11 02:15:10;;;;;;;2.33;1.63;;;15.10;76.80;;;13.97;70.64;98484.84;4998555;28;20473;-80
2022/07/11 02:17:38;;;;;;;1.83;1.40;;;15.00;77.00;;;14.03;70.50;98474.97;5018153;28;20563;-81
2022/07/11 02:20:07;;;;;;;1.87;1.70;;;15.00;77.30;;;14.14;70.23;98476.91;5016008;28;20473;-82
2022/07/11 02:22:34;;;;;;;3.20;1.70;;;15.00;77.10;;;13.98;71.00;98481.09;5018530;28;20865;-82
2022/07/11 02:25:02;;;;;;;1.73;1.07;;;15.00;77.20;;;14.22;70.85;98480.41;4998622;28;21053;-77
2022/07/11 02:27:29;;;;;;;2.93;2.03;;;15.10;77.70;;;14.02;71.10;98478.72;4996912;28;20456;-82
2022/07/11 02:29:58;;;;;;;1.90;1.30;;;15.00;77.70;;;13.88;71.82;98484.34;5008387;28;20481;-81
2022/07/11 02:32:25;;;;;;;2.03;1.60;;;15.00;78.00;;;14.01;71.38;98477.06;5001643;28;20463;-81
2022/07/11 02:34:53;;;;;;;3.60;1.90;;;15.00;78.00;;;13.94;71.07;98465.47;4997700;28;20497;-82
2022/07/11 02:37:21;;;;;;;1.83;1.63;;;15.00;77.80;;;13.91;71.20;98469.44;4996243;28;20461;-80
2022/07/11 02:39:48;;;;;;;2.87;1.43;;;15.00;77.90;;;13.99;70.90;98473.75;5017021;28;20970;-80
2022/07/11 02:42:16;;;;;;;1.70;1.30;;;15.00;77.70;;;13.99;71.05;98480.03;5000845;28;20489;-82
2022/07/11 02:44:45;;;;;;;1.90;1.73;;;15.00;77.80;;;14.07;70.45;98487.03;4995723;28;20482;-80
2022/07/11 02:47:14;;;;;;;2.70;1.50;;;15.00;77.60;;;13.94;70.78;98482.56;4995889;28;20451;-82
2022/07/11 02:49:42;;;;;;;3.83;1.30;;;15.00;77.60;;;13.79;70.95;98484.81;5016913;28;20557;-80
2022/07/11 02:52:10;;;;;;;1.70;1.50;;;14.90;77.70;;;13.87;71.58;98485.34;4997897;28;20464;-80
2022/07/11 02:54:38;;;;;;;3.20;1.60;;;14.90;77.90;;;14.01;70.63;98483.34;5006934;28;20450;-81
2022/07/11 02:57:06;;;;;;;3.60;1.40;;;15.00;77.70;;;14.07;70.87;98487.03;4988285;28;20482;-80
2022/07/11 02:59:33;;;;;;;2.03;1.70;;;15.00;77.90;;;13.88;70.93;98472.63;4996310;28;20636;-80
2022/07/11 03:02:04;;;;;;;1.97;1.77;;;14.90;77.50;;;13.74;71.54;98482.81;5008866;28;20463;-82
2022/07/11 03:04:33;;;;;;;4.17;2.03;;;14.80;77.70;;;13.69;71.73;98479.91;5005459;28;20464;-81
2022/07/11 03:07:00;;;;;;;2.70;2.00;;;14.70;78.00;;;13.64;72.07;98482.47;5008636;28;20461;-81
2022/07/11 03:09:28;;;;;;;4.20;2.00;;;14.70;78.10;;;13.68;71.64;98486.41;5008223;28;20464;-82
2022/07/11 03:11:55;;;;;;;3.30;2.40;;;14.70;78.10;;;13.72;71.31;98479.47;5006672;28;20452;-78
2022/07/11 03:14:23;;;;;;;3.37;1.77;;;14.80;78.10;;;13.59;71.56;98456.84;4999187;28;21136;-82
2022/07/11 03:16:50;;;;;;;1.93;1.77;;;14.70;78.00;;;13.87;70.90;98474.50;5002356;28;20480;-79
2022/07/11 03:19:17;;;;;;;2.10;1.90;;;14.80;77.60;;;13.79;71.11;98477.53;5020230;28;20472;-77
2022/07/11 03:21:47;;;;;;;2.50;1.80;;;14.80;77.70;;;13.70;71.84;98470.72;5012201;28;20973;-81
2022/07/11 03:24:14;;;;;;;2.37;1.70;;;14.80;77.90;;;14.13;70.07;98479.88;5010225;28;20479;-81
2022/07/11 03:26:41;;;;;;;4.33;2.13;;;15.00;78.00;;;13.80;71.11;98481.91;5001233;28;20521;-80
2022/07/11 03:29:08;;;;;;;3.20;1.87;;;14.90;77.70;;;13.88;70.91;98487.06;4991817;28;20470;-80
2022/07/11 03:31:35;;;;;;;2.90;1.90;;;15.00;77.80;;;13.70;71.78;98476.16;5003537;28;20548;-85
2022/07/11 03:34:03;;;;;;;2.37;1.60;;;14.90;78.20;;;13.76;72.50;98480.69;4996246;28;20487;-82
2022/07/11 03:36:30;;;;;;;5.93;2.00;;;14.80;78.90;;;13.75;73.73;98484.47;5001016;28;21154;-84
2022/07/11 03:38:59;;;;;;;4.30;2.13;;;14.80;79.80;;;13.88;73.71;98492.47;5004003;28;20466;-83
2022/07/11 03:41:27;;;;;;;1.73;1.63;;;14.90;80.30;;;13.71;73.68;98486.78;5001773;28;20578;-79
2022/07/11 03:43:56;;;;;;;2.27;1.87;;;14.80;80.00;;;13.90;72.84;98496.84;4997486;28;20480;-74
2022/07/11 03:46:23;;;;;;;2.40;1.97;;;14.80;79.90;;;13.81;72.46;98497.13;5004083;28;20454;-81
2022/07/11 03:48:51;;;;;;;3.97;1.93;;;14.80;79.30;;;13.72;72.38;98493.03;5008186;28;20470;-83
2022/07/11 03:51:18;;;;;;;2.50;1.83;;;14.80;79.30;;;13.85;72.42;98483.94;5005609;28;20548;-83
2022/07/11 03:53:45;;;;;;;4.63;2.07;;;14.80;79.40;;;13.76;73.16;98496.16;5002152;28;20466;-77
2022/07/11 03:56:16;;;;;;;4.73;2.40;;;14.80;80.00;;;13.25;73.89;98402.00;5001826;28;20458;-80
2022/07/11 03:58:43;;;;;;;2.17;1.97;;;14.80;80.50;;;14.03;73.24;98492.09;5000277;28;20547;-80
2022/07/11 04:01:11;;;;;;;2.60;1.77;;;14.90;80.60;;;13.87;74.26;98487.25;5008364;28;20964;-83
2022/07/11 04:03:38;;;;;;;3.30;2.27;;;14.90;81.10;;;14.01;73.15;98501.50;5006056;28;20479;-80
2022/07/11 04:06:06;;;;;;;1.70;1.60;;;15.00;80.80;;;13.82;74.06;98493.38;5008061;28;21014;-82
2022/07/11 04:08:33;;;;;;;2.73;1.90;;;14.90;80.80;;;13.85;74.48;98495.63;5002936;28;20461;-87
2022/07/11 04:11:01;;;;;;;2.80;2.30;;;14.90;81.60;;;13.28;75.97;98447.72;5025058;28;20496;-84
2022/07/11 04:13:30;;;;;;;2.50;1.80;;;14.70;82.50;;;13.64;76.02;98485.19;5007125;28;20569;-79
2022/07/11 04:15:58;;;;;;;2.73;2.00;;;14.70;83.30;;;13.73;76.81;98498.25;5002072;28;20463;-82
2022/07/11 04:18:26;;;;;;;7.50;1.97;;;14.70;84.00;;;13.73;77.05;98498.25;5000086;28;20485;-87
2022/07/11 04:20:53;;;;;;;2.90;2.00;;;14.70;84.50;;;13.79;76.46;98488.38;5006679;28;20476;-82
2022/07/11 04:23:21;;;;;;;4.10;1.87;;;14.80;84.10;;;13.57;77.86;98506.97;5018300;28;20957;-81
2022/07/11 04:25:48;;;;;;;4.53;1.87;;;14.70;84.80;;;13.51;78.70;98500.56;5006412;28;20576;-82
2022/07/11 04:28:15;;;;;;;2.40;1.70;;;14.60;86.20;;;13.91;77.49;98503.94;5004262;28;20458;-82
2022/07/11 04:30:44;;;;;;;2.20;1.90;;;14.80;86.10;;;13.87;77.83;98504.38;4999094;28;20471;-81
2022/07/11 04:33:12;;;;;;;2.27;1.93;;;14.80;86.50;;;14.00;77.45;98502.56;5004498;28;20475;-79
2022/07/11 04:35:39;;;;;;;3.37;2.03;;;14.90;85.90;;;13.60;77.80;98438.66;5024835;28;20849;-80
2022/07/11 04:38:06;;;;;;;2.40;2.20;;;15.00;86.00;;;13.94;77.86;98489.91;5011357;28;20490;-82
2022/07/11 04:40:33;;;;;;;2.37;1.80;;;15.00;86.50;;;13.85;78.29;98470.38;5029195;28;20467;-82
2022/07/11 04:43:00;;;;;;;2.20;1.93;;;15.00;86.90;;;14.19;76.66;98480.84;5011528;28;21028;-81
2022/07/11 04:45:29;;;;;;;1.80;1.70;;;15.10;85.90;;;14.09;77.11;98479.50;5032899;28;20509;-81
2022/07/11 04:47:57;;;;;;;4.30;2.03;;;15.20;85.80;;;14.40;75.79;98485.81;5023020;28;20469;-81
2022/07/11 04:50:25;;;;;;;6.53;3.30;;;15.40;85.00;;;14.79;74.63;98488.22;5018458;28;20458;-81
2022/07/11 04:52:52;;;;;;;3.07;1.93;;;15.60;84.10;;;14.92;74.19;98491.81;5033201;28;20492;-85
2022/07/11 04:55:20;;;;;;;3.10;2.00;;;15.80;83.20;;;14.99;73.24;98492.53;5016819;28;20447;-80
2022/07/11 04:57:47;;;;;;;2.53;2.30;;;16.00;82.10;;;15.11;72.44;98501.56;5017513;28;20469;-80
2022/07/11 05:00:15;;;;;;;2.83;2.53;;;16.10;81.30;;;14.97;71.86;98497.38;5016017;28;20479;-82
2022/07/11 05:02:43;;;;;;;3.60;2.53;;;16.10;80.40;;;15.29;71.18;98500.66;5015652;28;20464;-78
2022/07/11 05:05:12;;;;;;;2.73;2.53;;;16.30;80.30;;;15.35;69.85;98474.41;5007120;28;20471;-82
2022/07/11 05:07:39;;;;;;;1.93;1.83;;;16.40;79.60;;;15.75;69.57;98494.66;5005068;28;20466;-82
2022/07/11 05:10:08;;;;;;;3.53;1.80;;;16.50;79.40;;;15.24;71.08;98503.25;5000223;28;20461;-83
2022/07/11 05:12:36;;;;;;;3.60;2.07;;;16.40;79.60;;;15.67;69.27;98481.38;5017305;28;20526;-84
2022/07/11 05:15:04;;;;;;;2.47;2.20;;;16.60;79.50;;;15.48;70.05;98489.66;4999688;28;22510;-80
2022/07/11 05:17:32;;;;;;;2.50;2.30;;;16.60;79.10;;;15.75;69.10;98500.09;5003984;28;20470;-80
2022/07/11 05:19:59;;;;;;;2.23;1.77;;;16.60;79.10;;;15.16;69.70;98446.44;5004032;28;20467;-80
2022/07/11 05:22:29;;;;;;;2.43;2.23;;;16.60;78.70;;;15.98;68.50;98522.94;5020068;28;20548;-81
2022/07/11 05:24:57;;;;;;;2.70;2.43;;;16.80;79.00;;;16.69;66.44;98481.06;4996450;28;20487;-77
2022/07/11 05:27:24;;;;;;;3.03;1.93;;;17.30;78.60;;;17.34;63.53;98508.13;5013733;28;21089;-76
2022/07/11 05:29:51;;;;;;;3.40;2.30;;;18.40;75.50;;;16.62;65.41;98522.13;5002487;28;21074;-77
2022/07/11 05:32:19;;;;;;;4.97;2.10;;;18.00;75.10;;;16.14;66.87;98514.03;4999060;28;20451;-74
2022/07/11 05:34:46;;;;;;;2.50;2.10;;;17.50;75.80;;;15.90;68.22;98528.78;4996560;28;20836;-74
2022/07/11 05:37:14;;;;;;;7.23;2.10;;;17.00;76.60;;;15.89;67.93;98527.94;5001354;28;20458;-73
2022/07/11 05:39:42;;;;;;;2.50;2.30;;;16.90;77.30;;;15.73;68.45;98530.28;4994597;28;20987;-75
2022/07/11 05:42:09;;;;;;;2.80;2.50;;;16.80;77.30;;;15.39;69.71;98534.63;5000287;28;20988;-75
2022/07/11 05:44:37;;;;;;;2.77;2.57;;;16.50;78.10;;;15.18;71.38;98538.75;4995940;28;21177;-75
2022/07/11 05:47:05;;;;;;;3.13;2.30;;;16.20;79.20;;;15.15;71.32;98532.69;4999075;28;20471;-75
2022/07/11 05:49:33;;;;;;;3.10;2.60;;;16.10;79.60;;;15.29;71.32;98533.31;4995116;28;20457;-77
2022/07/11 05:52:01;;;;;;;2.43;2.23;;;16.20;80.10;;;15.19;71.73;98534.97;4999383;28;20480;-78
2022/07/11 05:54:29;;;;;;;2.90;2.30;;;16.20;80.10;;;15.25;71.71;98537.59;5010767;28;21202;-78
2022/07/11 05:56:58;;;;;;;2.23;2.03;;;16.10;80.60;;;15.19;72.36;98540.41;4997323;28;20961;-76
2022/07/11 05:59:25;;;;;;;2.53;2.33;;;16.20;80.90;;;15.30;71.85;98537.69;5001070;28;20456;-77
2022/07/11 06:01:52;;;;;;;5.30;2.50;;;16.20;80.70;;;15.34;71.80;98531.78;4998124;28;20530;-77
2022/07/11 06:04:20;;;;;;;4.13;2.70;;;16.30;80.90;;;15.44;71.73;98542.94;5010604;28;20469;-77
2022/07/11 06:06:47;;;;;;;5.40;2.30;;;16.30;80.70;;;15.49;71.74;98531.34;4991832;28;20467;-78
2022/07/11 06:09:15;;;;;;;5.60;2.20;;;16.40;80.40;;;15.44;71.18;98532.84;4990486;28;20991;-77
2022/07/11 06:11:42;;;;;;;2.33;2.13;;;16.40;80.30;;;15.49;71.67;98528.63;4992133;28;20498;-77
2022/07/11 06:14:11;;;;;;;2.57;2.37;;;16.40;80.50;;;15.75;70.56;98526.50;4990535;28;20456;-77
2022/07/11 06:16:38;;;;;;;4.60;2.70;;;16.60;80.20;;;15.99;69.75;98506.38;5000966;28;20467;-77
2022/07/11 06:19:06;;;;;;;2.93;2.70;;;16.90;79.80;;;16.16;68.96;98526.63;5002560;28;20523;-77
2022/07/11 06:21:33;;;;;;;3.63;2.60;;;17.00;79.30;;;16.25;68.43;98506.09;4997717;28;20492;-77
2022/07/11 06:24:01;;;;;;;2.70;2.50;;;17.20;78.80;;;16.59;66.66;98489.03;4992476;28;20530;-75
2022/07/11 06:26:28;;;;;;;2.43;2.23;;;17.60;78.40;;;16.53;67.36;98515.38;4999289;28;20474;-76
2022/07/11 06:28:57;;;;;;;2.40;2.20;;;17.70;77.60;;;17.02;66.14;98516.84;5001009;28;20462;-76
2022/07/11 06:31:25;;;;;;;1.80;1.70;;;17.80;77.50;;;17.25;65.24;98527.66;5023761;28;20490;-75
2022/07/11 06:33:56;;;;;;;3.00;2.00;;;18.10;77.00;;;17.27;64.80;98520.03;5004799;28;20548;-76
2022/07/11 06:36:23;;;;;;;2.00;1.63;;;18.20;76.40;;;17.24;64.93;98526.00;5008808;28;20450;-76
2022/07/11 06:38:50;;;;;;;2.60;2.13;;;18.10;76.30;;;17.30;64.87;98520.63;4997144;28;20460;-75
2022/07/11 06:41:18;;;;;;;1.83;1.73;;;18.10;76.30;;;17.26;64.84;98523.00;5005077;28;20477;-74
2022/07/11 06:43:47;;;;;;;1.67;1.57;;;18.10;76.40;;;17.63;64.17;98532.63;5014574;28;20472;-76
2022/07/11 06:46:15;;;;;;;2.00;1.90;;;18.30;76.00;;;17.59;64.21;98526.00;5012901;28;20529;-76
2022/07/11 06:48:45;;;;;;;2.17;2.07;;;18.40;75.70;;;17.45;64.69;98526.34;4988540;28;21294;-77
2022/07/11 06:51:12;;;;;;;2.10;2.00;;;18.40;75.70;;;17.69;64.06;98531.66;4999522;28;20885;-77
2022/07/11 06:53:40;;;;;;;2.23;1.80;;;18.60;75.50;;;17.79;63.49;98520.84;5013417;28;20517;-76
2022/07/11 06:56:07;;;;;;;1.80;1.53;;;18.70;75.10;;;17.63;64.20;98541.66;4999801;28;20450;-77
2022/07/11 06:58:35;;;;;;;2.20;1.80;;;18.50;75.30;;;17.64;63.94;98542.47;4999182;28;20473;-75
2022/07/11 07:01:05;;;;;;;1.83;1.73;;;18.50;75.20;;;17.78;63.77;98530.13;4998604;28;20854;-76
2022/07/11 07:03:34;;;;;;;2.00;1.60;;;18.60;75.30;;;17.68;63.77;98546.38;5001045;28;20487;-76
2022/07/11 07:06:03;;;;;;;1.80;1.70;;;18.50;75.00;;;17.63;63.95;98532.63;4998890;28;20493;-76
2022/07/11 07:08:31;;;;;;;2.20;2.00;;;18.40;75.20;;;17.89;63.26;98533.03;4997960;28;20459;-75
2022/07/11 07:10:59;;;;;;;2.37;2.17;;;18.70;74.90;;;17.99;62.79;98533.97;5003860;28;20478;-75
2022/07/11 07:13:28;;;;;;;1.50;1.40;;;18.80;74.30;;;18.38;61.97;98519.50;5000250;28;20451;-76
2022/07/11 07:15:56;;;;;;;2.13;1.63;;;19.20;74.20;;;18.62;61.03;98521.97;4995284;28;21137;-75
2022/07/11 07:18:25;;;;;;;2.10;1.40;;;19.40;73.70;;;18.71;60.43;98536.03;5001068;28;20592;-75
2022/07/11 07:20:52;;;;;;;2.23;1.30;;;19.50;72.80;;;18.73;60.64;98527.53;5002122;28;20537;-75
2022/07/11 07:23:21;;;;;;;1.63;1.47;;;19.50;72.90;;;18.64;59.84;98519.81;5002025;28;20451;-77
2022/07/11 07:25:49;;;;;;;1.20;1.10;;;19.50;71.70;;;18.20;61.18;98487.84;5004052;28;20592;-75
2022/07/11 07:28:16;;;;;;;1.97;1.43;;;19.30;72.60;;;18.53;60.93;98534.44;5003732;28;21030;-75
2022/07/11 07:30:44;;;;;;;1.47;1.37;;;19.40;72.50;;;18.51;60.69;98531.97;5006034;28;20470;-75
2022/07/11 07:33:12;;;;;;;1.47;1.37;;;19.40;72.10;;;18.68;60.15;98531.06;5000247;28;20538;-76
2022/07/11 07:35:40;;;;;;;1.17;1.10;;;19.60;71.70;;;18.45;60.64;98537.63;5019217;28;20533;-74
2022/07/11 07:38:07;;;;;;;1.50;1.30;;;19.40;71.60;;;18.06;61.74;98530.28;5000603;28;21049;-76
2022/07/11 07:40:36;;;;;;;0.90;0.90;;;19.20;72.00;;;17.77;63.03;98539.41;5001648;28;20459;-76
2022/07/11 07:43:03;;;;;;;0.97;0.87;;;18.70;72.60;;;17.94;61.86;98536.66;4996359;28;20469;-76
2022/07/11 07:45:30;;;;;;;1.20;0.83;;;18.80;72.40;;;18.23;61.42;98535.69;5002687;28;21233;-76
2022/07/11 07:47:58;;;;;;;1.93;1.00;;;19.00;72.40;;;18.17;61.74;98536.72;5015946;28;20629;-77
2022/07/11 07:50:26;;;;;;;1.07;0.97;;;19.10;72.30;;;18.35;60.85;98522.75;5005754;28;20458;-77
2022/07/11 07:52:54;;;;;;;1.43;0.90;;;19.20;72.30;;;18.23;60.92;98513.81;5001426;28;20516;-76
2022/07/11 07:55:21;;;;;;;1.13;0.90;;;19.10;71.80;;;18.07;61.65;98532.75;4998905;28;20550;-76
2022/07/11 07:57:50;;;;;;;0.83;0.80;;;19.00;71.90;;;17.81;62.55;98535.09;5004636;28;20459;-76
2022/07/11 08:03:06;;;;;;;2.53;0.80;;;18.70;72.60;;;17.61;63.53;98526.59;5002175;28;20463;-76
2022/07/11 08:05:34;;;;;;;1.43;1.03;;;18.50;73.00;;;17.58;64.13;98527.09;5002849;28;20508;-76
2022/07/11 08:08:03;;;;;;;0.80;0.70;;;18.50;73.50;;;17.55;63.89;98529.25;5003802;28;20566;-75
2022/07/11 08:10:30;;;;;;;0.73;0.70;;;18.40;73.40;;;17.50;63.81;98534.59;5005842;28;20911;-77
2022/07/11 08:12:59;;;;;;;0.80;0.80;;;18.40;73.50;;;17.53;63.60;98539.59;4999121;28;20464;-75
2022/07/11 08:15:26;;;;;;;0.80;0.70;;;18.40;73.40;;;17.95;62.84;98529.28;5001187;28;20465;-76
2022/07/11 08:17:54;;;;;;;0.80;0.80;;;18.70;73.30;;;18.02;62.08;98524.50;5001737;28;21206;-77
2022/07/11 08:20:21;;;;;;;2.57;1.10;;;18.90;72.50;;;18.61;60.27;98525.78;5001188;28;20646;-76
2022/07/11 08:22:49;;;;;;;1.87;1.20;;;19.20;72.20;;;18.67;60.03;98524.75;5004361;28;20459;-76
2022/07/11 08:25:17;;;;;;;2.20;0.97;;;19.40;71.70;;;18.34;60.61;98522.97;4996482;28;20463;-76
2022/07/11 08:27:44;;;;;;;0.80;0.77;;;19.30;71.40;;;18.14;61.38;98532.56;5001580;28;20465;-77
2022/07/11 08:30:13;;;;;;;0.77;0.77;;;19.20;71.60;;;17.89;62.25;98528.34;5000874;28;20528;-76
2022/07/11 08:32:41;;;;;;;0.97;0.80;;;18.90;72.00;;;17.62;63.18;98541.91;5001614;28;20463;-76
2022/07/11 08:35:10;;;;;;;2.17;1.10;;;18.70;72.40;;;17.38;64.36;98536.63;5002146;28;20466;-74
2022/07/11 08:37:38;;;;;;;1.47;1.00;;;18.40;73.20;;;17.28;64.56;98532.63;5002111;28;20466;-76
2022/07/11 08:40:07;;;;;;;1.17;0.83;;;18.20;73.60;;;17.41;64.32;98538.84;5000174;28;20455;-76
2022/07/11 08:42:41;;;;;;;2.27;0.97;;;18.30;74.00;;;17.35;65.10;98537.09;5006620;28;20492;-76
2022/07/11 08:45:13;;;;;;;1.93;0.90;;;18.30;74.20;;;17.50;64.22;98534.59;5002962;28;20481;-75
2022/07/11 08:47:40;;;;;;;2.17;1.27;;;18.30;73.80;;;17.35;64.81;98537.09;5001845;28;20463;-78
2022/07/11 08:50:10;;;;;;;2.63;0.93;;;18.20;74.20;;;17.25;65.26;98551.38;5017641;28;20459;-75
2022/07/11 08:52:39;;;;;;;3.40;1.10;;;18.20;74.30;;;17.12;65.99;98542.44;5000033;28;21064;-76
2022/07/11 08:55:07;;;;;;;1.20;1.10;;;18.10;74.80;;;17.35;65.79;98543.38;5023717;28;21057;-76
2022/07/11 08:57:36;;;;;;;0.80;0.80;;;18.10;75.20;;;17.62;64.17;98547.34;5003388;28;20471;-75
2022/07/11 09:00:08;;;;;;;1.10;0.90;;;18.40;74.50;;;17.88;63.50;98545.84;5007019;28;20465;-76
2022/07/11 09:02:37;;;;;;;2.33;1.03;;;18.70;74.00;;;18.11;63.44;98531.16;5005750;28;20486;-76
2022/07/11 09:05:07;;;;;;;1.00;0.90;;;18.90;74.30;;;17.74;64.22;98539.91;4998771;28;20520;-75
2022/07/11 09:07:35;;;;;;;0.80;0.80;;;18.80;74.10;;;17.30;66.91;98535.13;5000974;28;20474;-75
2022/07/11 09:10:03;;;;;;;0.90;0.70;;;18.40;75.50;;;16.89;69.49;98545.25;5003187;28;20459;-75
2022/07/11 09:12:30;;;;;;;1.20;1.10;;;18.10;77.10;;;16.46;71.62;98555.63;4996885;28;20460;-75
2022/07/11 09:14:59;;;;;;;0.97;0.90;;;17.70;78.70;;;15.88;73.49;98511.81;5012648;28;20466;-75
2022/07/11 09:17:28;;;;;;;1.27;1.17;;;17.30;80.50;;;15.86;75.66;98551.03;4997773;28;20559;-74
2022/07/11 09:19:57;;;;;;;1.00;0.90;;;17.00;83.30;;;15.57;78.58;98550.03;4998957;28;20485;-73
2022/07/11 09:25:23;;;;;;;1.30;1.07;;;16.30;89.80;;;14.83;84.30;98554.69;5003154;28;20574;-75
2022/07/11 09:27:54;;;;;;;2.30;1.50;;;15.90;92.80;;;14.91;86.90;98555.47;4998521;28;20453;-75
2022/07/11 09:30:27;;;;;;;1.50;1.40;;;15.80;95.30;;;14.78;87.07;98534.69;5000029;28;20883;-74
2022/07/11 09:33:00;;;;;;;1.93;1.53;;;15.80;96.40;;;14.90;88.29;98551.91;4999141;28;20572;-70
2022/07/11 09:35:32;;;;;;;2.50;1.47;;;15.80;97.50;;;15.14;88.95;98554.72;4997477;28;20478;-74
2022/07/11 09:38:00;;;;;;;2.20;2.00;;;16.00;98.60;;;15.63;85.69;98557.28;4992537;28;20459;-74
2022/07/11 09:40:27;;;;;;;1.40;1.30;;;16.30;96.40;;;16.19;81.99;98556.13;5003834;28;20560;-74
2022/07/11 09:42:57;;;;;;;3.40;2.00;;;16.90;93.30;;;16.71;81.36;98555.31;4995322;28;20484;-74
2022/07/11 09:45:27;;;;;;;1.10;1.10;;;17.30;93.30;;;16.89;77.64;98559.72;4998716;28;20858;-75
2022/07/11 09:47:56;;;;;;;1.47;1.37;;;17.70;89.50;;;17.16;76.91;98553.69;5011024;28;20493;-76
2022/07/11 09:50:26;;;;;;;1.33;1.17;;;18.00;88.70;;;17.72;73.76;98547.53;5000097;28;20561;-76
2022/07/11 09:53:04;;;;;;;1.30;1.20;;;18.40;85.80;;;18.27;72.74;98545.03;4998380;28;20522;-77
2022/07/11 09:55:32;;;;;;;1.20;1.10;;;18.90;86.00;;;18.52;69.43;98543.72;4997044;28;20443;-77
2022/07/11 09:58:00;;;;;;;1.10;0.80;;;19.40;82.40;;;18.57;68.03;98513.69;4998488;28;20456;-75
2022/07/11 10:00:27;;;;;;;1.00;0.90;;;19.70;81.00;;;19.23;64.81;98536.56;5018518;28;20993;-74
2022/07/11 10:02:56;;;;;;;1.17;0.80;;;20.10;79.50;;;19.24;62.89;98550.00;4997024;28;20466;-75
2022/07/11 10:05:23;;;;;;;1.00;0.73;;;20.20;76.60;;;19.60;63.73;98556.88;4995711;28;20459;-75
2022/07/11 10:07:50;;;;;;;1.00;0.87;;;20.30;77.40;;;19.79;62.94;98555.41;4998561;28;20478;-73
2022/07/11 10:10:19;;;;;;;0.70;0.70;;;20.60;77.30;;;19.91;62.20;98554.38;4998616;28;20470;-71
2022/07/11 10:12:47;;;;;;;1.20;1.10;;;20.80;76.40;;;19.46;63.46;98554.56;4996814;28;20969;-79
2022/07/11 10:15:20;;;;;;;0.80;0.80;;;20.70;76.00;;;19.38;62.14;98555.06;4999294;28;20540;-75
2022/07/11 10:18:01;;;;;;;1.00;0.90;;;20.50;74.70;;;19.27;63.72;98559.63;5011399;28;20459;-73
2022/07/11 10:20:36;;;;;;;2.63;0.83;;;20.30;76.50;;;19.05;64.40;98555.03;5001781;28;20474;-75
2022/07/11 10:23:16;;;;;;;0.80;0.80;;;20.10;76.10;;;19.04;62.84;98566.25;5003880;28;20474;-73
2022/07/11 10:25:50;;;;;;;0.97;0.90;;;20.00;75.30;;;18.88;63.03;98573.44;4994340;28;20463;-75
2022/07/11 10:28:28;;;;;;;1.13;0.80;;;19.70;75.30;;;18.48;64.22;98575.41;4999372;28;20473;-73
2022/07/11 10:30:59;;;;;;;0.90;0.90;;;19.50;75.60;;;17.68;67.58;98573.69;4996481;28;20974;-78
2022/07/11 10:33:28;;;;;;;1.00;1.00;;;18.80;77.00;;;17.05;70.81;98571.78;5000001;28;21096;-71